Main page
METAR-TAF:

METAR-TAF

Airports :

Nea Anchialos National Airport

Volos, Greece

latitude: 39-13N, longitude: 022-48E, elevation: 25 m

Current weather observation

The report was made 49 minutes ago, at 23:50 UTC
Wind 6 kt from the West/Southwest
Temperature 9°C
Humidity 66%
Pressure 1005 hPa
Visibility 10 km or more
Few clouds at a height of 3000 ft

METAR: LGBL 262350Z 24006KT 9999 FEW030 09/03 Q1005

Time: 02:39 (00:39 UTC)

Forecast

The report was made 1 hour and 39 minutes ago, at 23:00 UTC
Forecast valid from 27 at 00 UTC to 27 at 09 UTC
Wind 12 kt from the West/Southwest
Visibility 10 km or more
Few clouds at a height of 3000 ft
Scattered clouds at a height of 8000 ft
Becoming
from 27 at 07 UTC to 27 at 09 UTC
Wind 15 kt from the West

TAF: LGBL 262300Z 2700/2709 24012KT 9999 FEW030 SCT080 BECMG 2707/2709 27015KT

Weather observations and forecasts of more than 4000 airports (METAR and TAF reports).

The available stations are represented by yellow and red dots on the map.

Hover mouse over dot to see the name of the station.

Then click to see weather observations and forecasts.

To change the map : click on the green buttons with a black cross to zoom in, on the green button with a dash to zoom out, or on the green arrows for adjacent maps.


METAR-TAF: